createdAt,value
2022-10-27T00:00:50.185Z,4.78
2022-10-27T00:03:18.763Z,4.79
2022-10-27T00:05:47.816Z,4.79
2022-10-27T00:08:21.075Z,4.85
2022-10-27T00:11:03.521Z,4.85
2022-10-27T00:13:31.231Z,4.92
2022-10-27T00:15:59.711Z,4.82
2022-10-27T00:18:26.991Z,4.80
2022-10-27T00:21:06.129Z,4.80
2022-10-27T00:23:33.788Z,4.79
2022-10-27T00:26:01.454Z,4.78
2022-10-27T00:28:29.326Z,4.78
2022-10-27T00:31:04.586Z,4.56
2022-10-27T00:33:31.905Z,4.62
2022-10-27T00:36:06.730Z,4.66
2022-10-27T00:38:34.175Z,4.55
2022-10-27T00:41:02.262Z,4.46
2022-10-27T00:43:35.344Z,4.46
2022-10-27T00:46:16.993Z,4.46
2022-10-27T00:48:44.168Z,4.40
2022-10-27T00:51:16.415Z,4.41
2022-10-27T00:53:43.898Z,4.33
2022-10-27T00:56:11.389Z,4.37
2022-10-27T00:58:39.009Z,4.31
2022-10-27T01:01:06.490Z,4.32
2022-10-27T01:03:34.220Z,4.29
2022-10-27T01:06:01.721Z,4.20
2022-10-27T01:08:29.157Z,4.20
2022-10-27T01:10:56.195Z,4.12
2022-10-27T01:13:24.891Z,4.06
2022-10-27T01:16:02.038Z,3.96
2022-10-27T01:18:35.120Z,3.99
2022-10-27T01:21:24.995Z,3.88
2022-10-27T01:23:54.618Z,3.76
2022-10-27T01:26:48.259Z,3.77
2022-10-27T01:29:33.497Z,3.66
2022-10-27T01:32:16.208Z,3.54
2022-10-27T01:34:49.345Z,3.47
2022-10-27T01:37:21.266Z,3.42
2022-10-27T01:39:58.212Z,3.53
2022-10-27T01:42:37.228Z,3.47
2022-10-27T01:45:08.202Z,3.48
2022-10-27T01:47:36.678Z,3.57
2022-10-27T01:50:05.221Z,3.47
2022-10-27T01:52:49.809Z,3.47
2022-10-27T01:56:00.248Z,3.44
2022-10-27T01:58:51.501Z,3.55
2022-10-27T02:01:18.517Z,3.47
2022-10-27T02:03:48.544Z,3.47
2022-10-27T02:06:31.917Z,3.34
2022-10-27T02:09:15.111Z,3.39
2022-10-27T02:11:47.078Z,3.38
2022-10-27T02:14:14.495Z,3.41
2022-10-27T02:16:47.628Z,3.52
2022-10-27T02:19:25.729Z,3.67
2022-10-27T02:21:55.655Z,3.59
2022-10-27T02:24:23.192Z,3.50
2022-10-27T02:27:02.831Z,3.47
2022-10-27T02:32:30.055Z,3.60
2022-10-27T02:34:58.344Z,3.55
2022-10-27T02:43:01.291Z,3.44
2022-10-27T02:56:25.412Z,3.39
2022-10-27T02:58:52.399Z,3.32
2022-10-27T03:04:03.583Z,3.42
2022-10-27T03:06:30.609Z,3.43
2022-10-27T03:08:57.550Z,3.38
2022-10-27T03:14:08.663Z,3.34
2022-10-27T03:16:35.621Z,3.34
2022-10-27T03:19:02.559Z,3.36
2022-10-27T03:21:29.485Z,3.43
2022-10-27T03:23:56.373Z,3.51
2022-10-27T03:29:08.051Z,3.62
2022-10-27T03:31:34.910Z,3.43
2022-10-27T03:39:30.831Z,3.56
2022-10-27T03:41:57.798Z,3.62
2022-10-27T03:44:24.698Z,3.67
2022-10-27T03:49:35.728Z,3.85
2022-10-27T03:52:02.746Z,3.99
2022-10-27T03:57:15.562Z,4.06
2022-10-27T03:59:42.488Z,4.11
2022-10-27T04:02:09.558Z,4.10
2022-10-27T04:07:20.845Z,4.28
2022-10-27T04:12:32.198Z,4.47
2022-10-27T04:14:59.171Z,4.52
2022-10-27T04:17:26.066Z,4.52
2022-10-27T04:22:37.325Z,4.54
2022-10-27T04:25:04.711Z,4.57
2022-10-27T04:30:15.887Z,4.75
2022-10-27T04:32:42.820Z,4.66
2022-10-27T04:40:44.472Z,4.77
2022-10-27T04:43:11.500Z,4.87
2022-10-27T04:48:23.273Z,4.95
2022-10-27T04:50:52.667Z,4.93
2022-10-27T04:53:19.667Z,4.96
2022-10-27T04:55:46.545Z,4.96
2022-10-27T04:58:13.558Z,4.97
2022-10-27T05:00:40.587Z,5.01
2022-10-27T05:05:53.098Z,5.00
2022-10-27T05:08:20.034Z,4.97
2022-10-27T05:10:47.171Z,4.93
2022-10-27T05:13:14.094Z,4.86
2022-10-27T05:15:41.135Z,4.81
2022-10-27T05:18:10.203Z,4.86
2022-10-27T05:20:38.024Z,4.92
2022-10-27T05:25:55.257Z,4.99
2022-10-27T05:28:22.839Z,5.04
2022-10-27T05:30:49.858Z,5.08
2022-10-27T05:33:16.826Z,4.94
2022-10-27T05:41:15.837Z,5.08
2022-10-27T05:43:42.834Z,5.20
2022-10-27T05:46:09.941Z,5.27
2022-10-27T05:48:36.983Z,5.43
2022-10-27T05:56:36.549Z,5.37
2022-10-27T06:01:47.967Z,5.28
2022-10-27T06:04:15.045Z,5.20
2022-10-27T06:06:41.954Z,5.23
2022-10-27T06:09:08.886Z,5.42
2022-10-27T06:11:35.864Z,5.42
2022-10-27T06:14:02.746Z,5.52
2022-10-27T06:16:29.699Z,5.64
2022-10-27T06:18:57.135Z,5.62
2022-10-27T06:21:24.058Z,5.65
2022-10-27T06:23:51.184Z,5.69
2022-10-27T06:31:46.526Z,5.60
2022-10-27T06:34:13.418Z,5.60
2022-10-27T06:36:40.424Z,5.65
2022-10-27T06:39:07.338Z,5.70
2022-10-27T06:41:34.189Z,5.75
2022-10-27T06:44:01.180Z,5.88
2022-10-27T06:46:28.091Z,5.87
2022-10-27T06:48:54.969Z,5.78
2022-10-27T06:51:21.973Z,5.84
2022-10-27T06:53:49.011Z,5.74
2022-10-27T06:56:15.942Z,5.88
2022-10-27T06:58:42.786Z,5.99
2022-10-27T07:01:09.911Z,6.04
2022-10-27T07:03:38.181Z,6.24
2022-10-27T07:06:05.718Z,6.43
2022-10-27T07:19:30.546Z,6.70
2022-10-27T07:27:25.960Z,6.93
2022-10-27T07:35:22.305Z,7.25
2022-10-27T07:40:34.937Z,7.49
2022-10-27T07:43:10.280Z,7.51
2022-10-27T07:45:38.989Z,7.46
2022-10-27T07:56:21.237Z,7.63
2022-10-27T07:58:49.658Z,7.74
2022-10-27T08:01:16.709Z,7.88
2022-10-27T08:03:45.232Z,8.15
2022-10-27T08:06:14.521Z,8.24
2022-10-27T08:11:26.183Z,8.98
2022-10-27T08:13:53.949Z,8.89
2022-10-27T08:16:20.984Z,8.94
2022-10-27T08:18:47.979Z,9.17
2022-10-27T08:21:14.993Z,9.18
2022-10-27T08:23:43.092Z,9.18
2022-10-27T08:26:10.112Z,9.23
2022-10-27T08:28:37.625Z,9.39
2022-10-27T08:31:04.481Z,9.42
2022-10-27T08:33:31.361Z,9.40
2022-10-27T08:36:01.088Z,9.53
2022-10-27T08:41:24.111Z,9.68
2022-10-27T08:43:59.886Z,9.73
2022-10-27T08:46:40.838Z,9.51
2022-10-27T08:49:28.308Z,9.44
2022-10-27T08:52:06.492Z,9.55
2022-10-27T08:54:33.618Z,9.55
2022-10-27T08:57:03.546Z,9.80
2022-10-27T08:59:31.963Z,10.00
2022-10-27T09:05:26.566Z,10.24
2022-10-27T09:08:04.644Z,10.44
2022-10-27T09:10:46.962Z,10.54
2022-10-27T09:16:40.093Z,9.93
2022-10-27T09:19:13.963Z,10.04
2022-10-27T09:21:43.559Z,10.26
2022-10-27T09:24:17.812Z,10.25
2022-10-27T09:26:47.123Z,10.21
2022-10-27T09:29:27.874Z,10.18
2022-10-27T09:35:02.343Z,10.52
2022-10-27T09:37:40.823Z,10.49
2022-10-27T09:42:57.712Z,10.22
2022-10-27T09:45:28.740Z,10.25
2022-10-27T09:51:15.781Z,10.23
2022-10-27T09:56:38.455Z,10.63
2022-10-27T09:59:06.620Z,10.51
2022-10-27T10:10:31.238Z,12.52
2022-10-27T10:13:04.382Z,13.07
2022-10-27T10:18:28.972Z,14.40
2022-10-27T10:20:59.565Z,14.30
2022-10-27T10:26:27.329Z,14.91
2022-10-27T10:34:33.347Z,13.83
2022-10-27T10:37:00.788Z,13.67
2022-10-27T10:39:29.950Z,13.45
2022-10-27T10:45:22.555Z,12.44
2022-10-27T10:48:00.060Z,12.20
2022-10-27T10:50:28.676Z,12.02
2022-10-27T10:55:43.857Z,11.16
2022-10-27T11:01:07.504Z,10.63
2022-10-27T11:03:40.439Z,10.10
2022-10-27T11:06:17.653Z,9.82
2022-10-27T11:08:52.101Z,9.62
2022-10-27T11:11:22.400Z,9.43
2022-10-27T11:16:36.108Z,9.14
2022-10-27T11:19:15.499Z,9.08
2022-10-27T11:24:47.959Z,9.04
2022-10-27T11:27:29.079Z,8.86
2022-10-27T11:33:01.131Z,8.92
2022-10-27T11:35:41.240Z,9.03
2022-10-27T11:38:40.241Z,8.72
2022-10-27T11:41:18.477Z,8.56
2022-10-27T11:44:14.637Z,8.51
2022-10-27T11:49:48.046Z,8.67
2022-10-27T11:52:29.126Z,8.72
2022-10-27T11:54:57.469Z,8.68
2022-10-27T12:03:28.247Z,8.55
2022-10-27T12:06:10.345Z,8.47
2022-10-27T12:08:45.960Z,8.47
2022-10-27T12:11:18.260Z,8.50
2022-10-27T12:14:06.538Z,8.38
2022-10-27T12:16:42.618Z,8.30
2022-10-27T12:22:50.724Z,8.43
2022-10-27T12:25:34.408Z,8.39
2022-10-27T12:28:06.887Z,8.39
2022-10-27T12:30:34.108Z,8.41
2022-10-27T12:33:04.245Z,8.39
2022-10-27T12:36:09.618Z,8.24
2022-10-27T12:42:11.908Z,8.47
2022-10-27T12:44:44.664Z,8.43
2022-10-27T12:47:36.669Z,8.24
2022-10-27T12:50:25.486Z,8.03
2022-10-27T12:53:15.750Z,7.93
2022-10-27T12:56:13.695Z,7.93
2022-10-27T12:58:46.427Z,7.75
2022-10-27T13:01:44.542Z,7.86
2022-10-27T13:07:27.007Z,8.02
2022-10-27T13:10:19.487Z,8.00
2022-10-27T13:13:04.373Z,7.78
2022-10-27T13:15:46.501Z,7.91
2022-10-27T13:18:32.168Z,7.95
2022-10-27T13:21:24.205Z,7.79
2022-10-27T13:24:06.371Z,7.60
2022-10-27T13:26:52.201Z,7.63
2022-10-27T13:29:50.349Z,7.62
2022-10-27T13:32:20.300Z,7.60
2022-10-27T13:35:02.591Z,7.55
2022-10-27T13:40:38.159Z,7.43
2022-10-27T13:46:08.509Z,7.22
2022-10-27T13:48:35.665Z,7.26
2022-10-27T13:51:48.668Z,7.33
2022-10-27T13:54:56.357Z,7.28
2022-10-27T13:57:52.306Z,7.09
2022-10-27T14:05:59.835Z,7.07
2022-10-27T14:08:31.793Z,6.96
2022-10-27T14:11:10.274Z,6.89
2022-10-27T14:13:44.853Z,6.86
2022-10-27T14:16:26.724Z,6.85
2022-10-27T14:19:04.305Z,6.78
2022-10-27T14:27:24.572Z,6.74
2022-10-27T14:32:37.418Z,6.68
2022-10-27T14:35:29.175Z,6.69
2022-10-27T14:37:58.095Z,6.68
2022-10-27T14:40:40.717Z,6.62
2022-10-27T14:43:20.228Z,6.71
2022-10-27T14:46:01.981Z,6.73
2022-10-27T14:48:31.920Z,6.83
2022-10-27T14:51:10.559Z,6.91
2022-10-27T14:56:30.793Z,6.73
2022-10-27T14:59:03.527Z,6.63
2022-10-27T15:01:50.952Z,6.56
2022-10-27T15:04:20.849Z,6.60
2022-10-27T15:06:49.244Z,6.64
2022-10-27T15:09:34.237Z,6.66
2022-10-27T15:12:19.170Z,6.59
2022-10-27T15:14:47.409Z,6.64
2022-10-27T15:17:16.889Z,6.64
2022-10-27T15:19:49.417Z,6.59
2022-10-27T15:22:18.707Z,6.50
2022-10-27T15:24:46.351Z,6.49
2022-10-27T15:27:13.630Z,6.42
2022-10-27T15:29:42.878Z,6.35
2022-10-27T15:32:32.762Z,6.27
2022-10-27T15:34:59.750Z,6.23
2022-10-27T15:40:29.534Z,6.13
2022-10-27T15:42:57.904Z,6.05
2022-10-27T15:45:30.101Z,6.04
2022-10-27T15:47:58.552Z,6.00
2022-10-27T15:50:31.618Z,6.02
2022-10-27T15:53:20.427Z,6.06
2022-10-27T15:56:22.821Z,6.17
2022-10-27T16:02:35.162Z,6.09
2022-10-27T16:05:30.049Z,5.97
2022-10-27T16:08:20.731Z,5.97
2022-10-27T16:10:51.901Z,5.87
2022-10-27T16:13:21.529Z,5.78
2022-10-27T16:15:49.786Z,5.77
2022-10-27T16:18:20.483Z,5.74
2022-10-27T16:20:47.503Z,5.73
2022-10-27T16:23:16.034Z,5.66
2022-10-27T16:25:45.359Z,5.62
2022-10-27T16:28:18.931Z,5.61
2022-10-27T16:30:46.277Z,5.60
2022-10-27T16:33:17.400Z,5.71
2022-10-27T16:35:44.851Z,5.74
2022-10-27T16:38:12.093Z,5.68
2022-10-27T16:40:42.255Z,5.74
2022-10-27T16:43:52.818Z,5.71
2022-10-27T16:46:19.924Z,5.78
2022-10-27T16:51:32.297Z,5.85
2022-10-27T16:53:59.361Z,5.81
2022-10-27T16:56:27.104Z,5.89
2022-10-27T16:58:54.212Z,5.93
2022-10-27T17:04:07.086Z,6.07
2022-10-27T17:06:34.303Z,6.05
2022-10-27T17:09:01.433Z,5.98
2022-10-27T17:11:28.503Z,5.95
2022-10-27T17:13:55.654Z,6.03
2022-10-27T17:16:22.799Z,5.97
2022-10-27T17:18:50.018Z,5.81
2022-10-27T17:21:17.196Z,5.75
2022-10-27T17:23:45.768Z,5.76
2022-10-27T17:26:13.986Z,5.71
2022-10-27T17:28:41.898Z,5.72
2022-10-27T17:31:12.039Z,5.69
2022-10-27T17:33:39.842Z,5.63
2022-10-27T17:38:40.313Z,5.41
2022-10-27T17:41:09.296Z,5.39
2022-10-27T17:43:37.531Z,5.53
2022-10-27T17:46:22.311Z,5.50
2022-10-27T17:48:54.969Z,5.69
2022-10-27T17:51:24.386Z,5.75
2022-10-27T17:53:52.687Z,5.81
2022-10-27T17:56:29.744Z,5.88
2022-10-27T17:58:56.869Z,5.83
2022-10-27T18:01:27.451Z,5.71
2022-10-27T18:03:56.434Z,5.70
2022-10-27T18:06:25.412Z,5.64
2022-10-27T18:08:58.435Z,5.66
2022-10-27T18:11:28.402Z,5.66
2022-10-27T18:14:02.792Z,5.67
2022-10-27T18:16:32.982Z,5.66
2022-10-27T18:19:05.313Z,5.72
2022-10-27T18:21:35.562Z,5.83
2022-10-27T18:24:03.785Z,5.78
2022-10-27T18:26:34.643Z,5.81
2022-10-27T18:29:02.301Z,5.82
2022-10-27T18:31:36.376Z,5.71
2022-10-27T18:34:05.445Z,5.65
2022-10-27T18:36:33.418Z,5.61
2022-10-27T18:39:01.512Z,5.59
2022-10-27T18:41:31.650Z,5.64
2022-10-27T18:46:43.615Z,5.71
2022-10-27T18:49:15.922Z,5.77
2022-10-27T18:51:47.634Z,5.71
2022-10-27T18:54:17.529Z,5.79
2022-10-27T18:56:44.648Z,5.86
2022-10-27T18:59:13.387Z,5.97
2022-10-27T19:01:42.731Z,6.10
2022-10-27T19:04:10.133Z,6.12
2022-10-27T19:06:38.341Z,6.19
2022-10-27T19:09:05.824Z,6.17
2022-10-27T19:11:35.175Z,6.17
2022-10-27T19:14:03.002Z,6.20
2022-10-27T19:16:31.066Z,6.13
2022-10-27T19:18:59.140Z,6.23
2022-10-27T19:21:26.854Z,6.17
2022-10-27T19:23:56.505Z,6.23
2022-10-27T19:26:26.636Z,6.05
2022-10-27T19:31:40.456Z,6.16
2022-10-27T19:34:10.151Z,6.30
2022-10-27T19:36:38.149Z,6.42
2022-10-27T19:39:07.409Z,6.49
2022-10-27T19:41:36.618Z,6.59
2022-10-27T19:44:04.723Z,6.58
2022-10-27T19:46:32.713Z,6.64
2022-10-27T19:49:01.442Z,6.65
2022-10-27T19:51:31.712Z,6.69
2022-10-27T19:53:59.837Z,6.64
2022-10-27T19:56:28.996Z,6.61
2022-10-27T20:01:51.826Z,6.54
2022-10-27T20:04:20.405Z,6.51
2022-10-27T20:06:47.434Z,6.52
2022-10-27T20:09:16.301Z,6.53
2022-10-27T20:11:44.842Z,6.51
2022-10-27T20:17:00.024Z,6.47
2022-10-27T20:19:27.202Z,6.55
2022-10-27T20:21:56.036Z,6.63
2022-10-27T20:24:24.401Z,6.64
2022-10-27T20:26:53.738Z,6.68
2022-10-27T20:29:22.875Z,6.55
2022-10-27T20:32:07.832Z,6.37
2022-10-27T20:34:39.414Z,6.38
2022-10-27T20:38:03.574Z,6.33
2022-10-27T20:40:55.098Z,6.32
2022-10-27T20:43:22.662Z,6.39
2022-10-27T20:46:06.433Z,6.40
2022-10-27T20:48:49.975Z,6.49
2022-10-27T20:51:17.354Z,6.55
2022-10-27T20:53:45.458Z,6.58
2022-10-27T20:56:18.300Z,6.64
2022-10-27T20:58:46.231Z,6.72
2022-10-27T21:01:35.062Z,6.73
2022-10-27T21:04:03.350Z,6.78
2022-10-27T21:06:32.840Z,6.71
2022-10-27T21:09:02.812Z,6.79
2022-10-27T21:15:15.174Z,6.82
2022-10-27T21:19:03.234Z,6.81
2022-10-27T21:23:16.404Z,6.81
2022-10-27T21:26:22.230Z,6.80
2022-10-27T21:28:51.660Z,6.73
2022-10-27T21:31:19.701Z,6.74
2022-10-27T21:33:52.914Z,6.61
2022-10-27T21:36:20.599Z,6.70
2022-10-27T21:38:49.758Z,6.69
2022-10-27T21:41:19.312Z,6.62
2022-10-27T21:43:48.003Z,6.57
2022-10-27T21:46:16.843Z,6.42
2022-10-27T21:48:44.177Z,6.34
2022-10-27T21:51:13.030Z,6.30
2022-10-27T21:53:40.802Z,6.10
2022-10-27T21:56:09.571Z,6.13
2022-10-27T21:58:37.435Z,6.04
2022-10-27T22:01:16.477Z,6.02
2022-10-27T22:03:44.283Z,6.03
2022-10-27T22:06:19.760Z,5.98
2022-10-27T22:08:47.428Z,5.99
2022-10-27T22:11:17.596Z,5.97
2022-10-27T22:13:44.731Z,6.00
2022-10-27T22:16:17.990Z,6.07
2022-10-27T22:18:46.103Z,6.17
2022-10-27T22:21:15.923Z,6.16
2022-10-27T22:23:45.482Z,6.11
2022-10-27T22:26:15.288Z,6.03
2022-10-27T22:28:42.839Z,5.99
2022-10-27T22:31:16.925Z,5.96
2022-10-27T22:33:45.837Z,6.01
2022-10-27T22:36:16.461Z,6.02
2022-10-27T22:38:44.610Z,5.96
2022-10-27T22:41:14.391Z,6.14
2022-10-27T22:43:41.993Z,6.20
2022-10-27T22:46:15.280Z,6.28
2022-10-27T22:48:42.292Z,6.34
2022-10-27T22:51:12.730Z,6.39
2022-10-27T22:53:41.543Z,6.42
2022-10-27T22:56:17.805Z,6.50
2022-10-27T22:58:49.902Z,6.45
2022-10-27T23:01:29.500Z,6.48
2022-10-27T23:03:59.809Z,6.49
2022-10-27T23:06:28.967Z,6.52
2022-10-27T23:08:58.326Z,6.50
2022-10-27T23:11:28.675Z,6.45
2022-10-27T23:13:55.831Z,6.58
2022-10-27T23:16:22.979Z,6.52
2022-10-27T23:18:50.100Z,6.54
2022-10-27T23:21:17.342Z,6.55
2022-10-27T23:23:44.539Z,6.54
2022-10-27T23:26:25.697Z,6.58
2022-10-27T23:28:59.026Z,6.47
2022-10-27T23:31:27.665Z,6.56
2022-10-27T23:34:01.111Z,6.55
2022-10-27T23:36:30.822Z,6.46
2022-10-27T23:38:58.373Z,6.42
2022-10-27T23:41:26.176Z,6.40
2022-10-27T23:43:55.620Z,6.38
2022-10-27T23:46:24.170Z,6.44
2022-10-27T23:48:53.935Z,6.54
2022-10-27T23:53:53.278Z,6.44
2022-10-27T23:56:20.495Z,6.50
2022-10-27T23:58:48.216Z,6.49
